Terminal Aerodrome Forecast
Issued by NWS

Home | Current Version | Previous Version | Text Only | Print | Product List | Glossary On
Versions: 1 2 3 4 5 6 7 8 9 10 11 12 13 14 15 16 17 18 19 20 21 22
637
FTUS41 KBTV 202327
TAFMSS
TAF
KMSS 202327Z 2100/2124 VRB03KT P6SM OVC025
     FM210500 VRB02KT P6SM OVC010
     FM210800 VRB03KT 5SM BR VCSH OVC008
      TEMPO 2108/2112 4SM -FZDZ BR OVC005
     FM211500 24005KT 6SM BR SCT007 OVC012
     FM211900 VRB04KT P6SM OVC015=

USA.gov is the U.S. government's official web portal to all federal, state and local government web resources and services.